sensor_id;sensor_type;location;lat;lon;timestamp;pressure;altitude;pressure_sealevel;temperature;humidity
26823;BME280;14852;51.910;8.878;2023-06-24T00:02:12;100614.41;;;18.22;56.12
26823;BME280;14852;51.910;8.878;2023-06-24T00:04:38;100609.16;;;18.22;56.19
26823;BME280;14852;51.910;8.878;2023-06-24T00:07:04;100610.94;;;18.22;56.22
26823;BME280;14852;51.910;8.878;2023-06-24T00:09:30;100611.03;;;18.20;56.32
26823;BME280;14852;51.910;8.878;2023-06-24T00:11:57;100611.25;;;18.17;56.13
26823;BME280;14852;51.910;8.878;2023-06-24T00:14:25;100609.56;;;18.16;55.83
26823;BME280;14852;51.910;8.878;2023-06-24T00:16:55;100612.19;;;18.16;56.64
26823;BME280;14852;51.910;8.878;2023-06-24T00:19:26;100616.94;;;18.11;56.24
26823;BME280;14852;51.910;8.878;2023-06-24T00:21:53;100614.63;;;18.06;56.25
26823;BME280;14852;51.910;8.878;2023-06-24T00:24:20;100613.88;;;18.04;56.45
26823;BME280;14852;51.910;8.878;2023-06-24T00:26:46;100616.72;;;18.01;56.22
26823;BME280;14852;51.910;8.878;2023-06-24T00:29:13;100616.13;;;17.98;56.68
26823;BME280;14852;51.910;8.878;2023-06-24T00:31:39;100614.63;;;17.94;56.77
26823;BME280;14852;51.910;8.878;2023-06-24T00:34:05;100613.28;;;17.88;56.78
26823;BME280;14852;51.910;8.878;2023-06-24T00:36:31;100614.22;;;17.87;56.82
26823;BME280;14852;51.910;8.878;2023-06-24T00:39:05;100612.44;;;17.88;56.69
26823;BME280;14852;51.910;8.878;2023-06-24T00:41:35;100610.66;;;17.88;56.64
26823;BME280;14852;51.910;8.878;2023-06-24T00:44:01;100609.06;;;17.86;57.22
26823;BME280;14852;51.910;8.878;2023-06-24T00:46:28;100606.56;;;17.84;56.71
26823;BME280;14852;51.910;8.878;2023-06-24T00:48:57;100608.22;;;17.85;56.67
26823;BME280;14852;51.910;8.878;2023-06-24T00:51:25;100605.91;;;17.81;56.70
26823;BME280;14852;51.910;8.878;2023-06-24T00:54:00;100614.75;;;17.80;56.99
26823;BME280;14852;51.910;8.878;2023-06-24T00:56:35;100610.75;;;17.74;56.84
26823;BME280;14852;51.910;8.878;2023-06-24T00:59:04;100603.19;;;17.69;56.87
26823;BME280;14852;51.910;8.878;2023-06-24T01:01:34;100604.88;;;17.70;57.01
26823;BME280;14852;51.910;8.878;2023-06-24T01:04:02;100609.28;;;17.70;56.83
26823;BME280;14852;51.910;8.878;2023-06-24T01:06:29;100607.69;;;17.67;56.93
26823;BME280;14852;51.910;8.878;2023-06-24T01:08:59;100602.53;;;17.66;56.63
26823;BME280;14852;51.910;8.878;2023-06-24T01:11:29;100603.38;;;17.66;56.90
26823;BME280;14852;51.910;8.878;2023-06-24T01:13:57;100600.97;;;17.63;57.34
26823;BME280;14852;51.910;8.878;2023-06-24T01:16:42;100607.78;;;17.66;56.87
26823;BME280;14852;51.910;8.878;2023-06-24T01:20:03;100612.22;;;17.65;57.01
26823;BME280;14852;51.910;8.878;2023-06-24T01:28:51;100603.88;;;17.59;56.88
26823;BME280;14852;51.910;8.878;2023-06-24T01:31:59;100608.38;;;17.57;57.20
26823;BME280;14852;51.910;8.878;2023-06-24T01:35:00;100608.59;;;17.54;56.86
26823;BME280;14852;51.910;8.878;2023-06-24T01:37:37;100613.34;;;17.49;57.26
26823;BME280;14852;51.910;8.878;2023-06-24T01:40:13;100614.28;;;17.48;57.08
26823;BME280;14852;51.910;8.878;2023-06-24T01:42:43;100612.59;;;17.47;57.20
26823;BME280;14852;51.910;8.878;2023-06-24T01:45:14;100610.91;;;17.46;57.51
26823;BME280;14852;51.910;8.878;2023-06-24T01:47:47;100612.59;;;17.47;57.09
26823;BME280;14852;51.910;8.878;2023-06-24T01:50:15;100619.63;;;17.46;57.28
26823;BME280;14852;51.910;8.878;2023-06-24T01:52:44;100624.03;;;17.46;57.40
26823;BME280;14852;51.910;8.878;2023-06-24T01:55:14;100613.63;;;17.44;57.35
26823;BME280;14852;51.910;8.878;2023-06-24T01:57:42;100608.81;;;17.38;57.55
26823;BME280;14852;51.910;8.878;2023-06-24T02:00:10;100612.75;;;17.31;57.40
26823;BME280;14852;51.910;8.878;2023-06-24T02:02:49;100614.31;;;17.21;57.52
26823;BME280;14852;51.910;8.878;2023-06-24T02:05:17;100612.22;;;17.13;58.09
26823;BME280;14852;51.910;8.878;2023-06-24T02:07:46;100613.44;;;17.08;58.12
26823;BME280;14852;51.910;8.878;2023-06-24T02:10:12;100614.59;;;17.04;58.49
26823;BME280;14852;51.910;8.878;2023-06-24T02:12:39;100608.78;;;16.98;58.04
26823;BME280;14852;51.910;8.878;2023-06-24T02:15:07;100609.88;;;16.96;58.41
26823;BME280;14852;51.910;8.878;2023-06-24T02:17:35;100612.78;;;16.91;58.08
26823;BME280;14852;51.910;8.878;2023-06-24T02:20:02;100615.59;;;16.88;58.58
26823;BME280;14852;51.910;8.878;2023-06-24T02:22:30;100612.31;;;16.85;58.41
26823;BME280;14852;51.910;8.878;2023-06-24T02:24:57;100619.25;;;16.86;57.87
26823;BME280;14852;51.910;8.878;2023-06-24T02:27:23;100616.84;;;16.83;58.36
26823;BME280;14852;51.910;8.878;2023-06-24T02:29:50;100614.31;;;16.81;58.47
26823;BME280;14852;51.910;8.878;2023-06-24T02:32:17;100616.19;;;16.79;58.30
26823;BME280;14852;51.910;8.878;2023-06-24T02:34:42;100613.94;;;16.73;58.70
26823;BME280;14852;51.910;8.878;2023-06-24T02:37:08;100608.06;;;16.70;58.63
26823;BME280;14852;51.910;8.878;2023-06-24T02:39:35;100605.63;;;16.67;58.65
26823;BME280;14852;51.910;8.878;2023-06-24T02:42:03;100596.81;;;16.68;58.68
26823;BME280;14852;51.910;8.878;2023-06-24T02:44:29;100604.69;;;16.68;58.78
26823;BME280;14852;51.910;8.878;2023-06-24T02:46:56;100603.94;;;16.65;58.46
26823;BME280;14852;51.910;8.878;2023-06-24T02:49:23;100603.47;;;16.59;58.52
26823;BME280;14852;51.910;8.878;2023-06-24T02:51:50;100608.56;;;16.48;59.03
26823;BME280;14852;51.910;8.878;2023-06-24T02:54:16;100616.19;;;16.38;59.01
26823;BME280;14852;51.910;8.878;2023-06-24T02:57:06;100623.75;;;16.28;59.41
26823;BME280;14852;51.910;8.878;2023-06-24T03:00:09;100631.25;;;16.20;59.59
26823;BME280;14852;51.910;8.878;2023-06-24T03:02:57;100637.06;;;16.11;59.41
26823;BME280;14852;51.910;8.878;2023-06-24T03:05:23;100635.75;;;16.04;59.39
26823;BME280;14852;51.910;8.878;2023-06-24T03:07:52;100636.03;;;16.00;59.44
26823;BME280;14852;51.910;8.878;2023-06-24T03:10:19;100641.00;;;16.04;59.43
26823;BME280;14852;51.910;8.878;2023-06-24T03:12:45;100646.81;;;16.09;59.66
26823;BME280;14852;51.910;8.878;2023-06-24T03:15:13;100641.47;;;16.11;59.55
26823;BME280;14852;51.910;8.878;2023-06-24T03:17:39;100642.31;;;16.11;59.71
26823;BME280;14852;51.910;8.878;2023-06-24T03:20:05;100641.38;;;16.12;59.53
26823;BME280;14852;51.910;8.878;2023-06-24T03:22:32;100634.28;;;16.14;59.37
26823;BME280;14852;51.910;8.878;2023-06-24T03:24:58;100633.22;;;16.17;59.20
26823;BME280;14852;51.910;8.878;2023-06-24T03:27:24;100633.22;;;16.17;59.81
26823;BME280;14852;51.910;8.878;2023-06-24T03:29:51;100635.13;;;16.15;59.45
26823;BME280;14852;51.910;8.878;2023-06-24T03:32:17;100637.06;;;16.11;59.67
26823;BME280;14852;51.910;8.878;2023-06-24T03:34:43;100648.59;;;16.09;59.77
26823;BME280;14852;51.910;8.878;2023-06-24T03:37:10;100646.16;;;16.06;60.21
26823;BME280;14852;51.910;8.878;2023-06-24T03:39:39;100649.69;;;16.05;59.68
26823;BME280;14852;51.910;8.878;2023-06-24T03:42:06;100646.16;;;16.06;59.89
26823;BME280;14852;51.910;8.878;2023-06-24T03:44:32;100647.94;;;16.05;59.97
26823;BME280;14852;51.910;8.878;2023-06-24T03:46:57;100645.31;;;16.05;60.18
26823;BME280;14852;51.910;8.878;2023-06-24T03:49:24;100644.38;;;16.06;60.39
26823;BME280;14852;51.910;8.878;2023-06-24T03:51:50;100652.06;;;16.09;59.99
26823;BME280;14852;51.910;8.878;2023-06-24T03:54:15;100658.06;;;16.11;60.29
26823;BME280;14852;51.910;8.878;2023-06-24T03:56:41;100651.88;;;16.12;60.65
26823;BME280;14852;51.910;8.878;2023-06-24T03:59:07;100642.03;;;16.16;60.06
26823;BME280;14852;51.910;8.878;2023-06-24T04:01:33;100644.28;;;16.22;60.47
26823;BME280;14852;51.910;8.878;2023-06-24T04:03:59;100647.66;;;16.24;60.08
26823;BME280;14852;51.910;8.878;2023-06-24T04:06:25;100646.72;;;16.25;60.04
26823;BME280;14852;51.910;8.878;2023-06-24T04:08:52;100649.81;;;16.32;60.04
26823;BME280;14852;51.910;8.878;2023-06-24T04:11:18;100648.59;;;16.37;60.02
26823;BME280;14852;51.910;8.878;2023-06-24T04:13:47;100656.25;;;16.40;59.87
26823;BME280;14852;51.910;8.878;2023-06-24T04:16:14;100650.81;;;16.43;60.38
26823;BME280;14852;51.910;8.878;2023-06-24T04:18:40;100648.66;;;16.50;60.21
26823;BME280;14852;51.910;8.878;2023-06-24T04:21:06;100645.28;;;16.62;60.68
26823;BME280;14852;51.910;8.878;2023-06-24T04:23:32;100644.41;;;16.76;60.24
26823;BME280;14852;51.910;8.878;2023-06-24T04:25:59;100638.47;;;16.86;60.50
26823;BME280;14852;51.910;8.878;2023-06-24T04:28:24;100648.00;;;17.01;60.10
26823;BME280;14852;51.910;8.878;2023-06-24T04:30:51;100648.03;;;17.14;60.22
26823;BME280;14852;51.910;8.878;2023-06-24T04:33:17;100638.41;;;17.27;60.21
26823;BME280;14852;51.910;8.878;2023-06-24T04:35:44;100641.91;;;17.41;60.20
26823;BME280;14852;51.910;8.878;2023-06-24T04:38:11;100639.03;;;17.70;59.99
26823;BME280;14852;51.910;8.878;2023-06-24T04:40:38;100643.88;;;19.00;57.09
26823;BME280;14852;51.910;8.878;2023-06-24T04:43:03;100629.69;;;20.51;53.34
26823;BME280;14852;51.910;8.878;2023-06-24T04:45:29;100631.06;;;21.83;50.28
26823;BME280;14852;51.910;8.878;2023-06-24T04:47:55;100636.06;;;22.87;48.52
26823;BME280;14852;51.910;8.878;2023-06-24T04:50:20;100628.66;;;23.67;47.13
26823;BME280;14852;51.910;8.878;2023-06-24T04:52:52;100629.44;;;24.34;45.96
26823;BME280;14852;51.910;8.878;2023-06-24T04:55:21;100634.84;;;24.87;44.71
26823;BME280;14852;51.910;8.878;2023-06-24T04:57:47;100627.66;;;25.33;44.08
26823;BME280;14852;51.910;8.878;2023-06-24T05:00:14;100632.56;;;25.63;43.50
26823;BME280;14852;51.910;8.878;2023-06-24T05:02:40;100629.13;;;25.71;43.08
26823;BME280;14852;51.910;8.878;2023-06-24T05:05:06;100632.25;;;26.26;42.70
26823;BME280;14852;51.910;8.878;2023-06-24T05:07:32;100637.94;;;26.81;42.18
26823;BME280;14852;51.910;8.878;2023-06-24T05:09:58;100632.88;;;27.45;41.11
26823;BME280;14852;51.910;8.878;2023-06-24T05:12:23;100627.88;;;27.66;40.76
26823;BME280;14852;51.910;8.878;2023-06-24T05:14:52;100630.75;;;28.20;40.12
26823;BME280;14852;51.910;8.878;2023-06-24T05:17:21;100637.66;;;28.76;38.99
26823;BME280;14852;51.910;8.878;2023-06-24T05:19:47;100636.94;;;28.90;39.55
26823;BME280;14852;51.910;8.878;2023-06-24T05:22:13;100633.47;;;29.50;38.36
26823;BME280;14852;51.910;8.878;2023-06-24T05:24:38;100629.69;;;29.97;37.52
26823;BME280;14852;51.910;8.878;2023-06-24T05:27:07;100621.06;;;30.16;37.40
26823;BME280;14852;51.910;8.878;2023-06-24T05:29:34;100622.84;;;30.09;37.73
26823;BME280;14852;51.910;8.878;2023-06-24T05:31:59;100624.94;;;30.28;37.42
26823;BME280;14852;51.910;8.878;2023-06-24T05:34:27;100624.28;;;30.55;37.10
26823;BME280;14852;51.910;8.878;2023-06-24T05:36:53;100625.75;;;31.15;36.12
26823;BME280;14852;51.910;8.878;2023-06-24T05:39:20;100619.59;;;31.21;35.44
26823;BME280;14852;51.910;8.878;2023-06-24T05:41:45;100624.78;;;31.23;36.01
26823;BME280;14852;51.910;8.878;2023-06-24T05:44:14;100622.34;;;31.56;35.78
26823;BME280;14852;51.910;8.878;2023-06-24T05:46:39;100607.53;;;32.29;34.99
26823;BME280;14852;51.910;8.878;2023-06-24T05:49:05;100610.34;;;32.68;34.00
26823;BME280;14852;51.910;8.878;2023-06-24T05:51:31;100609.31;;;32.69;34.34
26823;BME280;14852;51.910;8.878;2023-06-24T05:53:57;100607.34;;;33.18;33.79
26823;BME280;14852;51.910;8.878;2023-06-24T05:56:23;100604.66;;;33.44;33.76
26823;BME280;14852;51.910;8.878;2023-06-24T05:58:49;100611.91;;;33.57;33.84
26823;BME280;14852;51.910;8.878;2023-06-24T06:01:15;100602.94;;;33.69;33.49
26823;BME280;14852;51.910;8.878;2023-06-24T06:03:41;100609.06;;;34.16;32.99
26823;BME280;14852;51.910;8.878;2023-06-24T06:06:06;100611.34;;;34.19;32.93
26823;BME280;14852;51.910;8.878;2023-06-24T06:08:33;100604.13;;;34.13;33.46
26823;BME280;14852;51.910;8.878;2023-06-24T06:11:00;100602.38;;;34.38;32.94
26823;BME280;14852;51.910;8.878;2023-06-24T06:13:31;100608.16;;;34.42;33.13
26823;BME280;14852;51.910;8.878;2023-06-24T06:15:57;100613.59;;;34.35;33.58
26823;BME280;14852;51.910;8.878;2023-06-24T06:18:23;100617.19;;;34.09;34.01
26823;BME280;14852;51.910;8.878;2023-06-24T06:20:49;100612.72;;;33.64;34.11
26823;BME280;14852;51.910;8.878;2023-06-24T06:23:15;100620.19;;;33.35;34.66
26823;BME280;14852;51.910;8.878;2023-06-24T06:25:42;100620.81;;;33.18;34.72
26823;BME280;14852;51.910;8.878;2023-06-24T06:28:08;100616.88;;;33.20;35.25
26823;BME280;14852;51.910;8.878;2023-06-24T06:30:33;100625.72;;;32.81;35.65
26823;BME280;14852;51.910;8.878;2023-06-24T06:32:59;100616.44;;;32.36;35.72
26823;BME280;14852;51.910;8.878;2023-06-24T06:35:25;100622.66;;;32.43;35.80
26823;BME280;14852;51.910;8.878;2023-06-24T06:37:51;100623.22;;;32.73;35.82
26823;BME280;14852;51.910;8.878;2023-06-24T06:40:23;100617.91;;;32.99;35.10
26823;BME280;14852;51.910;8.878;2023-06-24T06:42:49;100621.41;;;33.13;35.09
26823;BME280;14852;51.910;8.878;2023-06-24T06:45:15;100615.44;;;33.24;34.87
26823;BME280;14852;51.910;8.878;2023-06-24T06:47:41;100612.53;;;33.39;34.53
26823;BME280;14852;51.910;8.878;2023-06-24T06:50:07;100605.69;;;33.76;33.56
26823;BME280;14852;51.910;8.878;2023-06-24T06:52:33;100610.97;;;34.09;33.39
26823;BME280;14852;51.910;8.878;2023-06-24T06:54:59;100619.63;;;34.37;33.43
26823;BME280;14852;51.910;8.878;2023-06-24T06:57:25;100619.81;;;34.74;32.75
26823;BME280;14852;51.910;8.878;2023-06-24T06:59:51;100617.03;;;34.94;32.67
26823;BME280;14852;51.910;8.878;2023-06-24T07:02:20;100621.16;;;35.21;31.87
26823;BME280;14852;51.910;8.878;2023-06-24T07:04:45;100618.28;;;35.66;31.45
26823;BME280;14852;51.910;8.878;2023-06-24T07:07:13;100608.06;;;35.92;30.96
26823;BME280;14852;51.910;8.878;2023-06-24T07:09:39;100609.47;;;36.13;30.55
26823;BME280;14852;51.910;8.878;2023-06-24T07:12:06;100615.50;;;35.97;30.52
26823;BME280;14852;51.910;8.878;2023-06-24T07:14:32;100609.63;;;36.37;29.95
26823;BME280;14852;51.910;8.878;2023-06-24T07:16:58;100610.16;;;36.75;29.16
26823;BME280;14852;51.910;8.878;2023-06-24T07:19:24;100611.84;;;36.88;28.95
26823;BME280;14852;51.910;8.878;2023-06-24T07:21:51;100610.19;;;36.87;28.81
26823;BME280;14852;51.910;8.878;2023-06-24T07:24:17;100596.38;;;37.30;28.28
26823;BME280;14852;51.910;8.878;2023-06-24T07:26:43;100599.69;;;37.32;27.87
26823;BME280;14852;51.910;8.878;2023-06-24T07:29:09;100603.34;;;37.26;27.80
26823;BME280;14852;51.910;8.878;2023-06-24T07:31:35;100601.56;;;37.31;27.54
26823;BME280;14852;51.910;8.878;2023-06-24T07:34:02;100600.84;;;37.94;26.60
26823;BME280;14852;51.910;8.878;2023-06-24T07:36:28;100595.28;;;38.53;26.37
26823;BME280;14852;51.910;8.878;2023-06-24T07:38:53;100606.81;;;39.05;26.27
26823;BME280;14852;51.910;8.878;2023-06-24T07:41:19;100598.63;;;39.38;25.43
26823;BME280;14852;51.910;8.878;2023-06-24T07:43:45;100584.59;;;40.02;24.80
26823;BME280;14852;51.910;8.878;2023-06-24T07:46:10;100586.88;;;40.59;24.56
26823;BME280;14852;51.910;8.878;2023-06-24T07:48:36;100586.78;;;41.07;24.04
26823;BME280;14852;51.910;8.878;2023-06-24T07:51:02;100584.69;;;41.19;23.85
26823;BME280;14852;51.910;8.878;2023-06-24T07:53:28;100590.56;;;41.43;23.31
26823;BME280;14852;51.910;8.878;2023-06-24T07:55:53;100596.00;;;41.80;23.42
26823;BME280;14852;51.910;8.878;2023-06-24T07:58:19;100590.09;;;42.04;23.09
26823;BME280;14852;51.910;8.878;2023-06-24T08:00:45;100591.22;;;42.13;22.59
26823;BME280;14852;51.910;8.878;2023-06-24T08:03:13;100595.09;;;42.22;22.65
26823;BME280;14852;51.910;8.878;2023-06-24T08:05:39;100585.63;;;42.45;22.36
26823;BME280;14852;51.910;8.878;2023-06-24T08:08:05;100598.19;;;42.56;21.91
26823;BME280;14852;51.910;8.878;2023-06-24T08:10:34;100594.34;;;42.52;22.00
26823;BME280;14852;51.910;8.878;2023-06-24T08:13:00;100584.53;;;42.61;21.46
26823;BME280;14852;51.910;8.878;2023-06-24T08:15:26;100577.69;;;42.43;21.99
26823;BME280;14852;51.910;8.878;2023-06-24T08:17:53;100584.97;;;42.17;21.50
26823;BME280;14852;51.910;8.878;2023-06-24T08:20:21;100589.88;;;41.58;22.21
26823;BME280;14852;51.910;8.878;2023-06-24T08:22:47;100592.34;;;41.22;22.23
26823;BME280;14852;51.910;8.878;2023-06-24T08:25:12;100588.28;;;40.66;22.99
26823;BME280;14852;51.910;8.878;2023-06-24T08:27:38;100592.97;;;40.22;23.08
26823;BME280;14852;51.910;8.878;2023-06-24T08:30:07;100602.31;;;39.66;24.08
26823;BME280;14852;51.910;8.878;2023-06-24T08:32:34;100602.94;;;39.18;24.58
26823;BME280;14852;51.910;8.878;2023-06-24T08:34:59;100601.06;;;38.73;24.79
26823;BME280;14852;51.910;8.878;2023-06-24T08:37:25;100594.00;;;38.32;25.61
26823;BME280;14852;51.910;8.878;2023-06-24T08:39:51;100600.63;;;37.96;25.66
26823;BME280;14852;51.910;8.878;2023-06-24T08:42:17;100595.69;;;37.58;26.25
26823;BME280;14852;51.910;8.878;2023-06-24T08:44:42;100593.56;;;37.25;26.95
26823;BME280;14852;51.910;8.878;2023-06-24T08:47:08;100596.56;;;37.05;27.02
26823;BME280;14852;51.910;8.878;2023-06-24T08:50:04;100600.44;;;36.97;27.89
26823;BME280;14852;51.910;8.878;2023-06-24T08:52:34;100598.66;;;36.80;27.09
26823;BME280;14852;51.910;8.878;2023-06-24T08:55:01;100595.13;;;36.61;27.37
26823;BME280;14852;51.910;8.878;2023-06-24T08:57:27;100590.72;;;36.48;27.18
26823;BME280;14852;51.910;8.878;2023-06-24T08:59:53;100592.06;;;36.27;27.06
26823;BME280;14852;51.910;8.878;2023-06-24T09:02:19;100593.63;;;36.17;26.84
26823;BME280;14852;51.910;8.878;2023-06-24T09:04:45;100597.00;;;36.12;27.54
26823;BME280;14852;51.910;8.878;2023-06-24T09:07:11;100586.44;;;36.11;27.69
26823;BME280;14852;51.910;8.878;2023-06-24T09:09:44;100587.56;;;36.21;27.66
26823;BME280;14852;51.910;8.878;2023-06-24T09:12:14;100584.63;;;36.05;27.46
26823;BME280;14852;51.910;8.878;2023-06-24T09:14:40;100586.38;;;35.99;28.11
26823;BME280;14852;51.910;8.878;2023-06-24T09:17:07;100582.22;;;35.97;27.27
26823;BME280;14852;51.910;8.878;2023-06-24T09:19:35;100573.81;;;35.86;27.50
26823;BME280;14852;51.910;8.878;2023-06-24T09:22:09;100579.91;;;35.82;27.59
26823;BME280;14852;51.910;8.878;2023-06-24T09:24:44;100568.25;;;35.81;27.44
26823;BME280;14852;51.910;8.878;2023-06-24T09:27:13;100576.84;;;35.72;27.62
26823;BME280;14852;51.910;8.878;2023-06-24T09:29:42;100571.06;;;35.68;26.65
26823;BME280;14852;51.910;8.878;2023-06-24T09:32:09;100576.63;;;35.73;26.89
26823;BME280;14852;51.910;8.878;2023-06-24T09:34:35;100570.72;;;35.83;26.96
26823;BME280;14852;51.910;8.878;2023-06-24T09:37:01;100567.72;;;35.91;26.69
26823;BME280;14852;51.910;8.878;2023-06-24T09:39:28;100574.16;;;35.90;26.40
26823;BME280;14852;51.910;8.878;2023-06-24T09:42:01;100560.13;;;35.81;26.72
26823;BME280;14852;51.910;8.878;2023-06-24T09:44:28;100558.56;;;35.74;26.74
26823;BME280;14852;51.910;8.878;2023-06-24T09:46:54;100563.75;;;35.75;26.92
26823;BME280;14852;51.910;8.878;2023-06-24T09:49:22;100559.19;;;35.69;26.67
26823;BME280;14852;51.910;8.878;2023-06-24T09:51:51;100560.34;;;35.62;26.87
26823;BME280;14852;51.910;8.878;2023-06-24T09:54:20;100559.28;;;35.63;26.69
26823;BME280;14852;51.910;8.878;2023-06-24T09:56:51;100558.16;;;35.70;26.88
26823;BME280;14852;51.910;8.878;2023-06-24T09:59:21;100557.09;;;35.53;27.05
26823;BME280;14852;51.910;8.878;2023-06-24T10:01:48;100555.81;;;35.55;26.89
26823;BME280;14852;51.910;8.878;2023-06-24T10:04:19;100555.22;;;35.72;26.78
26823;BME280;14852;51.910;8.878;2023-06-24T10:06:45;100551.47;;;35.73;26.85
26823;BME280;14852;51.910;8.878;2023-06-24T10:09:11;100550.56;;;35.61;26.83
26823;BME280;14852;51.910;8.878;2023-06-24T10:11:39;100544.72;;;35.64;27.52
26823;BME280;14852;51.910;8.878;2023-06-24T10:14:06;100548.38;;;35.69;27.33
26823;BME280;14852;51.910;8.878;2023-06-24T10:16:32;100535.88;;;35.75;27.48
26823;BME280;14852;51.910;8.878;2023-06-24T10:19:02;100534.84;;;35.76;27.37
26823;BME280;14852;51.910;8.878;2023-06-24T10:21:54;100538.53;;;35.56;26.86
26823;BME280;14852;51.910;8.878;2023-06-24T10:24:39;100529.09;;;35.47;27.26
26823;BME280;14852;51.910;8.878;2023-06-24T10:27:15;100528.84;;;35.06;27.10
26823;BME280;14852;51.910;8.878;2023-06-24T10:29:46;100533.19;;;34.82;27.95
26823;BME280;14852;51.910;8.878;2023-06-24T10:32:12;100527.59;;;34.83;28.23
26823;BME280;14852;51.910;8.878;2023-06-24T10:37:18;100519.13;;;35.23;27.59
26823;BME280;14852;51.910;8.878;2023-06-24T10:39:57;100514.34;;;35.43;27.10
26823;BME280;14852;51.910;8.878;2023-06-24T10:44:54;100514.00;;;35.58;27.29
26823;BME280;14852;51.910;8.878;2023-06-24T10:47:22;100510.16;;;35.47;27.21
26823;BME280;14852;51.910;8.878;2023-06-24T10:49:49;100506.16;;;35.32;27.60
26823;BME280;14852;51.910;8.878;2023-06-24T10:52:22;100508.66;;;35.33;26.53
26823;BME280;14852;51.910;8.878;2023-06-24T10:54:49;100502.59;;;35.13;26.73
26823;BME280;14852;51.910;8.878;2023-06-24T10:57:16;100516.19;;;34.75;26.94
26823;BME280;14852;51.910;8.878;2023-06-24T10:59:49;100515.44;;;34.36;28.16
26823;BME280;14852;51.910;8.878;2023-06-24T11:02:18;100505.63;;;34.42;27.64
26823;BME280;14852;51.910;8.878;2023-06-24T11:04:53;100508.50;;;34.47;27.46
26823;BME280;14852;51.910;8.878;2023-06-24T11:07:24;100502.63;;;34.19;27.55
26823;BME280;14852;51.910;8.878;2023-06-24T11:09:56;100502.53;;;34.00;27.68
26823;BME280;14852;51.910;8.878;2023-06-24T11:12:28;100497.59;;;33.84;27.58
26823;BME280;14852;51.910;8.878;2023-06-24T11:14:58;100495.69;;;33.98;27.85
26823;BME280;14852;51.910;8.878;2023-06-24T11:17:25;100497.28;;;34.12;27.80
26823;BME280;14852;51.910;8.878;2023-06-24T11:19:53;100492.19;;;34.35;26.83
26823;BME280;14852;51.910;8.878;2023-06-24T11:22:19;100491.81;;;34.57;27.26
26823;BME280;14852;51.910;8.878;2023-06-24T11:24:45;100491.75;;;34.63;26.70
26823;BME280;14852;51.910;8.878;2023-06-24T11:27:11;100495.44;;;34.44;27.15
26823;BME280;14852;51.910;8.878;2023-06-24T11:29:37;100495.66;;;34.42;26.98
26823;BME280;14852;51.910;8.878;2023-06-24T11:32:08;100483.66;;;34.63;27.05
26823;BME280;14852;51.910;8.878;2023-06-24T11:34:36;100487.31;;;34.82;27.16
26823;BME280;14852;51.910;8.878;2023-06-24T11:37:12;100482.53;;;35.02;26.83
26823;BME280;14852;51.910;8.878;2023-06-24T11:39:38;100477.00;;;35.15;26.95
26823;BME280;14852;51.910;8.878;2023-06-24T11:42:09;100472.03;;;35.12;26.27
26823;BME280;14852;51.910;8.878;2023-06-24T11:44:41;100483.41;;;34.96;26.55
26823;BME280;14852;51.910;8.878;2023-06-24T11:47:11;100473.34;;;34.85;26.77
26823;BME280;14852;51.910;8.878;2023-06-24T11:49:55;100468.88;;;34.97;26.82
26823;BME280;14852;51.910;8.878;2023-06-24T11:52:48;100466.44;;;35.14;26.36
26823;BME280;14852;51.910;8.878;2023-06-24T11:55:25;100454.81;;;35.32;26.58
26823;BME280;14852;51.910;8.878;2023-06-24T11:57:54;100459.63;;;35.48;25.98
26823;BME280;14852;51.910;8.878;2023-06-24T12:00:28;100458.44;;;35.62;25.92
26823;BME280;14852;51.910;8.878;2023-06-24T12:02:57;100452.88;;;35.75;25.73
26823;BME280;14852;51.910;8.878;2023-06-24T12:05:25;100454.53;;;35.76;25.44
26823;BME280;14852;51.910;8.878;2023-06-24T12:08:04;100450.75;;;35.59;25.99
26823;BME280;14852;51.910;8.878;2023-06-24T12:10:32;100450.88;;;35.52;25.97
26823;BME280;14852;51.910;8.878;2023-06-24T12:12:59;100446.19;;;35.60;25.99
26823;BME280;14852;51.910;8.878;2023-06-24T12:15:26;100446.56;;;35.63;25.87
26823;BME280;14852;51.910;8.878;2023-06-24T12:17:52;100442.88;;;35.57;26.21
26823;BME280;14852;51.910;8.878;2023-06-24T12:20:18;100435.16;;;35.61;26.01
26823;BME280;14852;51.910;8.878;2023-06-24T12:22:46;100442.56;;;35.66;25.88
26823;BME280;14852;51.910;8.878;2023-06-24T12:25:12;100437.53;;;35.69;25.65
26823;BME280;14852;51.910;8.878;2023-06-24T12:27:38;100443.31;;;35.73;25.40
26823;BME280;14852;51.910;8.878;2023-06-24T12:30:04;100443.13;;;35.74;25.61
26823;BME280;14852;51.910;8.878;2023-06-24T12:32:30;100445.13;;;35.79;25.26
26823;BME280;14852;51.910;8.878;2023-06-24T12:34:56;100448.34;;;35.69;25.34
26823;BME280;14852;51.910;8.878;2023-06-24T12:37:22;100439.94;;;35.59;25.29
26823;BME280;14852;51.910;8.878;2023-06-24T12:39:48;100436.41;;;35.58;25.17
26823;BME280;14852;51.910;8.878;2023-06-24T12:42:16;100430.22;;;35.76;25.38
26823;BME280;14852;51.910;8.878;2023-06-24T12:44:42;100431.66;;;35.90;25.51
26823;BME280;14852;51.910;8.878;2023-06-24T12:47:08;100424.78;;;36.06;24.96
26823;BME280;14852;51.910;8.878;2023-06-24T12:49:33;100423.00;;;36.12;25.11
26823;BME280;14852;51.910;8.878;2023-06-24T12:52:01;100415.16;;;36.10;24.78
26823;BME280;14852;51.910;8.878;2023-06-24T12:54:27;100420.31;;;36.12;24.89
26823;BME280;14852;51.910;8.878;2023-06-24T12:56:53;100417.72;;;36.05;25.05
26823;BME280;14852;51.910;8.878;2023-06-24T12:59:19;100427.25;;;36.08;24.66
26823;BME280;14852;51.910;8.878;2023-06-24T13:01:44;100430.00;;;36.19;25.14
26823;BME280;14852;51.910;8.878;2023-06-24T13:04:11;100422.03;;;36.24;25.07
26823;BME280;14852;51.910;8.878;2023-06-24T13:06:37;100416.25;;;36.21;24.79
26823;BME280;14852;51.910;8.878;2023-06-24T13:09:03;100417.38;;;36.13;24.23